Time;durP1;ratioP1;P1;durP2;ratioP2;P2;SDS_P1;SDS_P2;PMS_P1;PMS_P2;Temp;Humidity;BMP_temperature;BMP_pressure;BME280_temperature;BME280_humidity;BME280_pressure;Samples;Min_cycle;Max_cycle;Signal;HPM_P1;HPM_P2
2022/02/18 00:01:06;;;;;;;1.77;0.60;;;7.00;83.00;;;;;;5113813;28;20050;-73
2022/02/18 00:03:32;;;;;;;3.25;0.77;;;6.90;83.00;;;;;;5094500;28;20044;-73
2022/02/18 00:05:58;;;;;;;7.10;0.93;;;7.00;83.10;;;;;;5113527;28;20430;-73
2022/02/18 00:08:25;;;;;;;3.13;0.60;;;7.00;83.20;;;;;;5113912;28;20118;-73
2022/02/18 00:10:51;;;;;;;2.28;0.77;;;7.00;83.20;;;;;;5113583;28;20043;-74
2022/02/18 00:13:18;;;;;;;1.95;0.80;;;7.00;83.20;;;;;;5095292;28;20089;-72
2022/02/18 00:15:44;;;;;;;2.35;0.80;;;7.00;83.20;;;;;;5113670;28;20045;-71
2022/02/18 00:18:09;;;;;;;3.10;0.70;;;7.00;83.30;;;;;;5095673;28;20040;-72
2022/02/18 00:20:36;;;;;;;1.17;0.28;;;7.00;83.30;;;;;;5113666;28;20043;-70
2022/02/18 00:23:08;;;;;;;1.58;0.70;;;7.00;83.40;;;;;;5113112;28;20049;-71
2022/02/18 00:25:34;;;;;;;2.35;0.50;;;7.00;83.50;;;;;;5112557;28;20048;-71
2022/02/18 00:28:00;;;;;;;3.05;0.70;;;7.00;83.60;;;;;;5094610;28;20048;-70
2022/02/18 00:30:27;;;;;;;1.83;0.57;;;7.00;83.60;;;;;;5113085;28;20042;-71
2022/02/18 00:32:53;;;;;;;1.63;0.45;;;7.00;83.60;;;;;;5094531;28;20126;-71
2022/02/18 00:35:22;;;;;;;1.48;0.50;;;7.00;83.60;;;;;;5094679;28;20071;-71
2022/02/18 00:37:52;;;;;;;1.15;0.50;;;7.00;83.80;;;;;;5093521;28;20452;-71
2022/02/18 00:40:18;;;;;;;3.10;0.55;;;7.00;83.80;;;;;;5112796;28;20032;-71
2022/02/18 00:42:44;;;;;;;0.65;0.40;;;7.00;83.90;;;;;;5094839;28;20556;-71
2022/02/18 00:45:14;;;;;;;1.33;0.50;;;7.00;83.90;;;;;;5112758;28;20043;-71
2022/02/18 00:47:39;;;;;;;2.25;0.55;;;7.00;83.90;;;;;;5061329;28;20040;-71
2022/02/18 00:50:06;;;;;;;2.67;0.82;;;7.00;84.00;;;;;;5112700;28;20042;-71
2022/02/18 00:52:32;;;;;;;1.17;0.50;;;6.90;84.00;;;;;;5077776;28;20042;-71
2022/02/18 00:54:57;;;;;;;2.42;0.43;;;6.90;84.10;;;;;;5059215;28;20041;-71
2022/02/18 00:57:26;;;;;;;0.70;0.38;;;6.90;84.10;;;;;;5113147;28;20039;-71
2022/02/18 00:59:52;;;;;;;1.05;0.60;;;7.00;84.20;;;;;;5112483;28;20497;-71
2022/02/18 01:02:18;;;;;;;3.08;0.63;;;6.90;84.20;;;;;;5077674;28;20035;-71
2022/02/18 01:04:44;;;;;;;1.52;0.47;;;7.00;84.30;;;;;;5112660;28;20443;-71
2022/02/18 01:07:09;;;;;;;2.00;0.52;;;7.00;84.30;;;;;;5112359;28;20059;-71
2022/02/18 01:09:35;;;;;;;0.25;0.20;;;6.90;84.30;;;;;;5112673;28;20420;-71
2022/02/18 01:12:01;;;;;;;0.47;0.30;;;6.90;84.30;;;;;;5094563;28;20047;-71
2022/02/18 01:14:27;;;;;;;0.82;0.50;;;6.90;84.40;;;;;;5094061;28;20043;-71
2022/02/18 01:16:52;;;;;;;0.43;0.20;;;6.90;84.40;;;;;;5112613;28;20104;-71
2022/02/18 01:19:18;;;;;;;1.75;0.43;;;6.90;84.50;;;;;;5112681;28;20044;-71
2022/02/18 01:21:44;;;;;;;0.88;0.43;;;6.90;84.60;;;;;;5112610;28;20032;-71
2022/02/18 01:24:10;;;;;;;3.00;0.60;;;6.90;84.60;;;;;;5112425;28;20904;-71
2022/02/18 01:26:36;;;;;;;0.65;0.35;;;6.90;84.70;;;;;;5112361;28;20031;-71
2022/02/18 01:29:03;;;;;;;0.95;0.30;;;6.90;84.70;;;;;;5094172;28;20035;-71
2022/02/18 01:31:29;;;;;;;1.15;0.40;;;6.90;84.80;;;;;;5112588;28;20052;-71
2022/02/18 01:33:57;;;;;;;1.27;0.40;;;6.80;84.80;;;;;;5112588;28;20088;-71
2022/02/18 01:36:23;;;;;;;0.20;0.13;;;6.90;84.80;;;;;;5096469;28;20396;-71
2022/02/18 01:38:49;;;;;;;0.75;0.35;;;6.90;84.90;;;;;;5097951;28;20362;-71
2022/02/18 01:41:15;;;;;;;2.67;0.40;;;6.90;85.00;;;;;;5115665;28;20040;-72
2022/02/18 01:43:50;;;;;;;1.30;0.40;;;6.80;85.00;;;;;;5097592;28;20039;-72
2022/02/18 01:46:15;;;;;;;0.65;0.30;;;6.90;85.20;;;;;;5115621;28;20116;-72
2022/02/18 01:48:41;;;;;;;0.55;0.30;;;6.90;85.10;;;;;;5115443;28;20077;-72
2022/02/18 01:51:08;;;;;;;0.93;0.17;;;6.80;85.10;;;;;;5080654;28;20043;-72
2022/02/18 01:53:35;;;;;;;0.65;0.20;;;6.80;85.10;;;;;;5115984;28;20067;-71
2022/02/18 01:56:01;;;;;;;1.05;0.30;;;6.70;85.10;;;;;;5115698;28;20181;-72
2022/02/18 01:58:27;;;;;;;1.17;0.52;;;6.90;85.20;;;;;;5115414;28;20135;-72
2022/02/18 02:00:53;;;;;;;1.33;0.40;;;6.80;85.20;;;;;;5097567;28;20118;-72
2022/02/18 02:03:20;;;;;;;1.77;0.40;;;6.80;85.20;;;;;;5115991;28;20377;-72
2022/02/18 02:05:47;;;;;;;1.45;0.40;;;6.80;85.20;;;;;;5115965;28;20042;-72
2022/02/18 02:08:13;;;;;;;0.85;0.30;;;6.90;85.30;;;;;;5115555;28;20416;-72
2022/02/18 02:10:43;;;;;;;1.05;0.40;;;6.90;85.20;;;;;;5115256;28;20042;-72
2022/02/18 02:13:26;;;;;;;0.30;0.20;;;6.90;85.20;;;;;;5095544;28;20044;-72
2022/02/18 02:15:51;;;;;;;1.25;0.22;;;6.90;85.10;;;;;;5097065;28;20442;-70
2022/02/18 02:18:17;;;;;;;0.10;0.10;;;6.80;85.10;;;;;;5096967;28;20040;-70
2022/02/18 02:20:43;;;;;;;0.40;0.25;;;6.90;85.10;;;;;;5115644;28;20039;-69
2022/02/18 02:23:08;;;;;;;0.22;0.20;;;6.90;85.10;;;;;;5096846;28;20035;-70
2022/02/18 02:25:36;;;;;;;0.93;0.30;;;6.90;85.10;;;;;;5114943;28;20135;-72
2022/02/18 02:28:02;;;;;;;1.35;0.30;;;7.00;85.30;;;;;;5114905;28;20051;-72
2022/02/18 02:30:28;;;;;;;0.70;0.30;;;7.00;85.30;;;;;;5114919;28;20404;-70
2022/02/18 02:32:53;;;;;;;0.57;0.20;;;7.00;85.30;;;;;;5115127;28;20508;-70
2022/02/18 02:35:19;;;;;;;1.75;0.30;;;7.00;85.30;;;;;;5114881;28;20389;-70
2022/02/18 02:37:44;;;;;;;0.80;0.20;;;7.00;85.30;;;;;;5095302;28;20048;-70
2022/02/18 02:40:18;;;;;;;0.22;0.20;;;7.00;85.30;;;;;;5114782;28;20040;-70
2022/02/18 02:42:44;;;;;;;0.45;0.25;;;7.00;85.30;;;;;;5114870;28;20542;-70
2022/02/18 02:45:11;;;;;;;0.50;0.35;;;7.00;85.20;;;;;;5096863;28;20044;-70
2022/02/18 02:47:39;;;;;;;0.73;0.30;;;7.00;85.20;;;;;;5114391;28;20082;-71
2022/02/18 02:50:06;;;;;;;1.65;0.55;;;7.00;85.10;;;;;;5114481;28;20506;-70
2022/02/18 02:52:32;;;;;;;1.48;0.45;;;7.00;85.10;;;;;;5114511;28;20040;-70
2022/02/18 02:54:58;;;;;;;3.63;0.80;;;7.10;85.20;;;;;;5114754;28;20050;-70
2022/02/18 02:57:24;;;;;;;2.72;0.55;;;7.10;85.20;;;;;;5114380;28;20122;-70
2022/02/18 02:59:49;;;;;;;1.33;0.80;;;7.10;85.10;;;;;;5114278;28;20954;-70
2022/02/18 03:02:16;;;;;;;1.60;0.60;;;7.10;85.00;;;;;;5114443;28;20039;-70
2022/02/18 03:04:41;;;;;;;0.73;0.40;;;7.10;85.00;;;;;;5114813;28;20593;-70
2022/02/18 03:07:07;;;;;;;1.02;0.40;;;7.20;85.00;;;;;;5096534;28;20049;-70
2022/02/18 03:09:33;;;;;;;1.17;0.47;;;7.20;85.00;;;;;;5114179;28;20457;-70
2022/02/18 03:11:59;;;;;;;0.60;0.30;;;7.20;84.90;;;;;;5114587;28;20503;-70
2022/02/18 03:14:25;;;;;;;1.73;0.65;;;7.20;85.00;;;;;;5114612;28;20043;-70
2022/02/18 03:16:51;;;;;;;1.10;0.47;;;7.20;85.00;;;;;;5114713;28;20122;-71
2022/02/18 03:19:17;;;;;;;3.30;0.80;;;7.20;85.10;;;;;;5114079;28;20515;-70
2022/02/18 03:21:43;;;;;;;0.80;0.50;;;7.30;85.10;;;;;;5114185;28;20088;-70
2022/02/18 03:24:09;;;;;;;3.05;0.60;;;7.20;85.10;;;;;;5114184;28;20039;-70
2022/02/18 03:26:36;;;;;;;2.28;0.63;;;7.30;85.10;;;;;;5114067;28;20528;-70
2022/02/18 03:29:02;;;;;;;1.95;0.45;;;7.20;85.00;;;;;;5114050;28;20063;-70
2022/02/18 03:31:28;;;;;;;0.77;0.40;;;7.20;85.10;;;;;;5113917;28;20047;-70
2022/02/18 03:33:54;;;;;;;2.17;0.70;;;7.30;85.10;;;;;;5095638;28;20047;-70
2022/02/18 03:36:20;;;;;;;1.33;0.50;;;7.30;85.10;;;;;;5113894;28;20047;-70
2022/02/18 03:38:46;;;;;;;1.75;0.60;;;7.30;85.10;;;;;;5095491;28;20047;-70
2022/02/18 03:41:11;;;;;;;1.98;0.57;;;7.20;85.10;;;;;;5114106;28;20084;-70
2022/02/18 03:43:37;;;;;;;1.35;0.40;;;7.30;85.20;;;;;;5113591;28;20126;-70
2022/02/18 03:46:04;;;;;;;2.53;0.60;;;7.30;85.30;;;;;;5113571;28;20473;-70
2022/02/18 03:48:30;;;;;;;1.67;0.40;;;7.30;85.30;;;;;;5113758;28;20043;-70
2022/02/18 03:50:56;;;;;;;3.25;0.52;;;7.30;85.30;;;;;;5113520;28;20071;-70
2022/02/18 03:53:22;;;;;;;2.05;0.45;;;7.30;85.30;;;;;;5113959;28;20514;-71
2022/02/18 03:55:49;;;;;;;1.23;0.47;;;7.30;85.30;;;;;;5093669;28;20051;-70
2022/02/18 03:58:15;;;;;;;1.70;0.43;;;7.30;85.30;;;;;;5094513;28;20135;-70
2022/02/18 04:00:41;;;;;;;1.38;0.52;;;7.30;85.40;;;;;;5113418;28;20044;-70
2022/02/18 04:03:07;;;;;;;3.17;0.57;;;7.30;85.40;;;;;;5113417;28;20085;-70
2022/02/18 04:05:33;;;;;;;2.63;0.63;;;7.30;85.50;;;;;;5113737;28;20419;-70
2022/02/18 04:07:59;;;;;;;1.50;0.57;;;7.30;85.50;;;;;;5113653;28;20039;-70
2022/02/18 04:10:25;;;;;;;2.35;0.47;;;7.30;85.60;;;;;;5095427;28;20461;-70
2022/02/18 04:12:50;;;;;;;3.50;0.50;;;7.30;85.60;;;;;;5113684;28;20035;-70
2022/02/18 04:15:16;;;;;;;0.85;0.30;;;7.30;85.60;;;;;;5113659;28;20080;-70
2022/02/18 04:17:42;;;;;;;0.63;0.20;;;7.30;85.60;;;;;;5095010;28;20130;-70
2022/02/18 04:20:08;;;;;;;1.25;0.30;;;7.30;85.70;;;;;;5113293;28;20036;-70
2022/02/18 04:22:34;;;;;;;1.00;0.43;;;7.30;85.70;;;;;;5094884;28;20120;-70
2022/02/18 04:25:00;;;;;;;0.75;0.35;;;7.40;85.80;;;;;;5094228;28;20093;-70
2022/02/18 04:27:25;;;;;;;1.17;0.40;;;7.30;85.90;;;;;;5061242;28;20044;-69
2022/02/18 04:29:51;;;;;;;0.68;0.30;;;7.30;85.90;;;;;;5112838;28;20044;-70
2022/02/18 04:32:17;;;;;;;0.98;0.30;;;7.40;86.00;;;;;;5094562;28;20071;-70
2022/02/18 04:34:43;;;;;;;0.73;0.20;;;7.30;86.00;;;;;;5112786;28;20097;-70
2022/02/18 04:37:08;;;;;;;1.17;0.50;;;7.40;86.10;;;;;;5113455;28;20392;-70
2022/02/18 04:39:34;;;;;;;2.03;0.50;;;7.20;86.00;;;;;;5094967;28;20043;-70
2022/02/18 04:42:00;;;;;;;1.40;0.40;;;7.20;86.00;;;;;;5113306;28;20036;-70
2022/02/18 04:44:26;;;;;;;1.05;0.40;;;7.30;86.20;;;;;;5112911;28;20092;-70
2022/02/18 04:46:51;;;;;;;1.52;0.20;;;7.40;86.30;;;;;;5113381;28;20040;-70
2022/02/18 04:49:17;;;;;;;0.63;0.32;;;7.30;86.30;;;;;;5112742;28;20055;-70
2022/02/18 04:51:43;;;;;;;1.63;0.40;;;7.30;86.30;;;;;;5112659;28;20130;-70
2022/02/18 04:54:08;;;;;;;1.27;0.28;;;7.30;86.40;;;;;;5094430;28;20047;-70
2022/02/18 04:56:35;;;;;;;2.83;0.60;;;7.30;86.40;;;;;;5112485;28;20039;-70
2022/02/18 04:59:01;;;;;;;1.02;0.32;;;7.30;86.50;;;;;;5112497;28;20081;-70
2022/02/18 05:01:27;;;;;;;1.02;0.55;;;7.30;86.50;;;;;;5113102;28;20070;-70
2022/02/18 05:03:53;;;;;;;2.72;0.70;;;7.30;86.40;;;;;;5113379;28;20422;-70
2022/02/18 05:06:19;;;;;;;1.38;0.40;;;7.30;86.40;;;;;;5094454;28;20043;-70
2022/02/18 05:08:45;;;;;;;1.42;0.50;;;7.30;86.40;;;;;;5093289;28;20067;-70
2022/02/18 05:11:11;;;;;;;2.60;0.55;;;7.40;86.50;;;;;;5077182;28;20048;-70
2022/02/18 05:13:39;;;;;;;4.03;0.82;;;7.40;86.50;;;;;;5112749;28;20173;-70
2022/02/18 05:16:05;;;;;;;2.92;0.60;;;7.40;86.50;;;;;;5094336;28;20042;-70
2022/02/18 05:18:32;;;;;;;0.90;0.40;;;7.40;86.40;;;;;;5112688;28;20198;-71
2022/02/18 05:20:58;;;;;;;3.90;0.73;;;7.40;86.40;;;;;;5112851;28;20036;-70
2022/02/18 05:23:24;;;;;;;2.17;0.57;;;7.40;86.40;;;;;;5113168;28;20123;-70
2022/02/18 05:25:50;;;;;;;2.30;0.63;;;7.40;86.50;;;;;;5112923;28;20134;-70
2022/02/18 05:28:15;;;;;;;2.03;0.40;;;7.50;86.50;;;;;;5112929;28;20048;-69
2022/02/18 05:30:42;;;;;;;2.63;0.60;;;7.40;86.50;;;;;;5112551;28;20050;-70
2022/02/18 05:33:09;;;;;;;2.22;0.60;;;7.50;86.50;;;;;;5112819;28;20508;-70
2022/02/18 05:35:35;;;;;;;1.77;0.60;;;7.50;86.50;;;;;;5112391;28;20516;-72
2022/02/18 05:38:01;;;;;;;3.63;0.75;;;7.50;86.50;;;;;;5112622;28;20043;-70
2022/02/18 05:40:27;;;;;;;0.98;0.40;;;7.50;86.50;;;;;;5077755;28;20038;-71
2022/02/18 05:42:52;;;;;;;2.03;0.47;;;7.50;86.50;;;;;;5112180;28;20473;-71
2022/02/18 05:45:18;;;;;;;1.23;0.50;;;7.50;86.60;;;;;;5112320;28;20122;-72
2022/02/18 05:47:44;;;;;;;0.77;0.45;;;7.50;86.60;;;;;;5112686;28;20044;-72
2022/02/18 05:50:11;;;;;;;2.03;0.60;;;7.50;86.60;;;;;;5112170;28;20393;-72
2022/02/18 05:52:39;;;;;;;1.15;0.40;;;7.50;86.60;;;;;;5093120;28;20044;-71
2022/02/18 05:55:06;;;;;;;0.75;0.20;;;7.50;86.70;;;;;;5092781;28;20048;-72
2022/02/18 05:57:31;;;;;;;1.95;0.50;;;7.60;86.80;;;;;;5112265;28;20036;-71
2022/02/18 05:59:57;;;;;;;1.55;0.40;;;7.50;86.80;;;;;;5093522;28;20050;-71
2022/02/18 06:02:23;;;;;;;1.70;0.45;;;7.50;86.80;;;;;;5112097;28;20036;-71
2022/02/18 06:04:49;;;;;;;0.63;0.40;;;7.50;86.80;;;;;;5112113;28;20031;-71
2022/02/18 06:07:16;;;;;;;4.05;0.68;;;7.50;86.80;;;;;;5074871;28;20043;-71
2022/02/18 06:09:42;;;;;;;2.50;0.40;;;7.50;86.80;;;;;;5111884;28;20084;-72
2022/02/18 06:12:08;;;;;;;1.65;0.52;;;7.50;86.80;;;;;;5093559;28;20047;-71
2022/02/18 06:14:33;;;;;;;2.95;0.60;;;7.60;86.90;;;;;;5112097;28;20040;-71
2022/02/18 06:16:59;;;;;;;1.27;0.40;;;7.50;86.80;;;;;;5112184;28;20047;-72
2022/02/18 06:19:25;;;;;;;2.58;0.60;;;7.60;86.90;;;;;;5093428;28;20054;-72
2022/02/18 06:21:51;;;;;;;2.28;0.82;;;7.60;86.90;;;;;;5094064;28;20104;-71
2022/02/18 06:24:17;;;;;;;1.45;0.75;;;7.60;86.90;;;;;;5097141;28;20085;-71
2022/02/18 06:26:42;;;;;;;3.75;0.77;;;7.60;86.90;;;;;;5096935;28;20393;-72
2022/02/18 06:29:08;;;;;;;1.88;0.50;;;7.60;86.80;;;;;;5115656;28;20043;-71
2022/02/18 06:31:34;;;;;;;2.78;0.63;;;7.60;86.70;;;;;;5115146;28;20042;-71
2022/02/18 06:33:59;;;;;;;2.25;0.70;;;7.70;86.70;;;;;;5096905;28;20051;-72
2022/02/18 06:36:25;;;;;;;2.80;0.60;;;7.70;86.70;;;;;;5115604;28;20036;-72
2022/02/18 06:38:51;;;;;;;1.55;0.40;;;7.70;86.70;;;;;;5115446;28;20036;-72
2022/02/18 06:41:17;;;;;;;1.10;0.40;;;7.70;86.70;;;;;;5114986;28;20506;-71
2022/02/18 06:43:43;;;;;;;1.50;0.45;;;7.70;86.80;;;;;;5114912;28;20031;-71
2022/02/18 06:46:08;;;;;;;2.22;0.57;;;7.70;86.80;;;;;;5114878;28;20489;-73
2022/02/18 06:48:34;;;;;;;3.63;1.00;;;7.70;87.50;;;;;;5115524;28;20036;-71
2022/02/18 06:51:00;;;;;;;5.43;1.15;;;7.70;86.90;;;;;;5115496;28;20043;-71
2022/02/18 06:53:26;;;;;;;4.45;0.93;;;7.70;86.90;;;;;;5115436;28;20048;-71
2022/02/18 06:55:52;;;;;;;4.85;0.80;;;7.60;86.90;;;;;;5115384;28;20046;-72
2022/02/18 06:58:19;;;;;;;2.40;0.77;;;7.60;87.00;;;;;;5096731;28;20047;-72
2022/02/18 07:00:44;;;;;;;3.38;0.60;;;7.60;87.10;;;;;;5114521;28;20037;-72
2022/02/18 07:03:10;;;;;;;3.30;0.85;;;7.60;87.20;;;;;;5115259;28;20032;-72
2022/02/18 07:05:36;;;;;;;3.42;1.00;;;7.60;87.30;;;;;;5115165;28;20139;-72
2022/02/18 07:08:02;;;;;;;3.47;0.90;;;7.60;87.40;;;;;;5114762;28;20035;-72
2022/02/18 07:10:28;;;;;;;2.85;0.70;;;7.50;87.50;;;;;;5114597;28;20044;-72
2022/02/18 07:12:55;;;;;;;1.60;0.70;;;7.50;87.60;;;;;;5114547;28;20042;-72
2022/02/18 07:15:21;;;;;;;2.63;0.70;;;7.50;87.70;;;;;;5079640;28;20512;-72
2022/02/18 07:17:49;;;;;;;4.05;0.98;;;7.50;87.80;;;;;;5114071;28;20067;-73
2022/02/18 07:20:16;;;;;;;3.88;1.05;;;7.60;87.90;;;;;;5114005;28;20043;-72
2022/02/18 07:22:43;;;;;;;3.22;1.05;;;7.50;88.00;;;;;;5094284;28;20039;-72
2022/02/18 07:25:10;;;;;;;3.72;1.13;;;7.50;88.00;;;;;;5114091;28;20035;-72
2022/02/18 07:27:35;;;;;;;3.08;1.00;;;7.50;88.00;;;;;;5096095;28;20043;-73
2022/02/18 07:30:02;;;;;;;3.40;0.90;;;7.50;88.10;;;;;;5095166;28;20391;-72
2022/02/18 07:32:28;;;;;;;2.17;0.70;;;7.60;88.20;;;;;;5113960;28;20071;-72
2022/02/18 07:34:54;;;;;;;2.97;0.80;;;7.60;88.20;;;;;;5079117;28;20132;-73
2022/02/18 07:37:19;;;;;;;4.60;1.27;;;7.60;88.20;;;;;;5114299;28;20043;-72
2022/02/18 07:39:45;;;;;;;1.73;0.70;;;7.60;88.20;;;;;;5113847;28;20046;-72
2022/02/18 07:42:11;;;;;;;2.72;0.82;;;7.60;88.30;;;;;;5114075;28;20032;-73
2022/02/18 07:44:37;;;;;;;5.35;1.00;;;7.70;88.40;;;;;;5114443;28;20062;-72
2022/02/18 07:47:03;;;;;;;3.20;1.20;;;7.70;88.40;;;;;;5113956;28;20067;-73
2022/02/18 07:49:29;;;;;;;4.65;1.20;;;7.70;88.50;;;;;;5114412;28;20050;-72
2022/02/18 07:51:55;;;;;;;3.35;1.05;;;7.70;88.50;;;;;;5096343;28;20122;-73
2022/02/18 07:54:21;;;;;;;1.52;0.70;;;7.70;88.60;;;;;;5078361;28;20043;-73
2022/02/18 07:56:46;;;;;;;4.28;1.08;;;7.80;88.60;;;;;;5114129;28;20040;-72
2022/02/18 07:59:12;;;;;;;3.60;1.10;;;7.80;88.70;;;;;;5114137;28;20054;-72
2022/02/18 08:01:38;;;;;;;5.28;1.33;;;7.80;88.70;;;;;;5113641;28;20134;-72
2022/02/18 08:04:04;;;;;;;5.20;1.73;;;7.90;89.00;;;;;;5094507;28;20036;-72
2022/02/18 08:06:30;;;;;;;4.30;1.52;;;7.90;88.90;;;;;;5113581;28;20036;-72
2022/02/18 08:08:56;;;;;;;4.85;1.38;;;7.90;89.00;;;;;;5113208;28;20047;-72
2022/02/18 08:11:22;;;;;;;4.88;1.30;;;7.90;89.00;;;;;;5095075;28;20047;-72
2022/02/18 08:13:48;;;;;;;4.55;1.17;;;8.00;89.10;;;;;;5095313;28;20113;-73
2022/02/18 08:16:15;;;;;;;3.65;1.17;;;8.00;89.10;;;;;;5113437;28;20039;-72
2022/02/18 08:18:43;;;;;;;3.28;1.30;;;8.00;89.10;;;;;;5113751;28;20051;-72
2022/02/18 08:21:10;;;;;;;4.30;1.33;;;8.10;89.30;;;;;;5094722;28;20063;-72
2022/02/18 08:23:37;;;;;;;4.90;1.45;;;8.20;89.30;;;;;;5113303;28;20493;-72
2022/02/18 08:26:03;;;;;;;4.22;1.25;;;8.10;89.30;;;;;;5113488;28;20066;-72
2022/02/18 08:28:28;;;;;;;4.32;1.27;;;8.10;89.30;;;;;;5095108;28;20480;-73
2022/02/18 08:30:54;;;;;;;6.20;1.45;;;8.20;89.40;;;;;;5113110;28;20070;-73
2022/02/18 08:33:20;;;;;;;6.28;1.60;;;8.20;89.40;;;;;;5113737;28;20047;-74
2022/02/18 08:35:46;;;;;;;3.55;1.27;;;8.20;89.40;;;;;;5113814;28;20388;-73
2022/02/18 08:38:12;;;;;;;4.30;1.05;;;8.30;89.50;;;;;;5095036;28;20048;-72
2022/02/18 08:40:38;;;;;;;4.60;1.08;;;8.30;89.60;;;;;;5113200;28;20088;-72
2022/02/18 08:43:03;;;;;;;4.10;1.27;;;8.30;89.60;;;;;;5094970;28;20074;-72
2022/02/18 08:45:30;;;;;;;4.53;1.48;;;8.40;89.70;;;;;;5112547;28;20036;-72
2022/02/18 08:47:56;;;;;;;4.07;1.25;;;8.40;89.70;;;;;;5113153;28;20091;-73
2022/02/18 08:50:22;;;;;;;4.72;1.50;;;8.40;89.70;;;;;;5093856;28;20047;-72
2022/02/18 08:52:48;;;;;;;4.35;1.17;;;8.50;89.70;;;;;;5095477;28;20039;-73
2022/02/18 08:55:15;;;;;;;2.95;1.10;;;8.50;89.80;;;;;;5113015;28;20043;-73
2022/02/18 08:57:44;;;;;;;3.20;1.10;;;8.50;89.80;;;;;;5113062;28;20050;-73
2022/02/18 09:00:11;;;;;;;6.07;1.30;;;8.50;89.80;;;;;;5112980;28;20031;-73
2022/02/18 09:02:38;;;;;;;3.92;1.10;;;8.60;89.90;;;;;;5112973;28;20044;-73
2022/02/18 09:05:05;;;;;;;2.97;1.13;;;8.60;89.90;;;;;;5094956;28;20040;-74
2022/02/18 09:07:31;;;;;;;4.03;1.13;;;8.70;90.00;;;;;;5113489;28;20122;-73
2022/02/18 09:09:57;;;;;;;4.00;1.20;;;8.70;89.90;;;;;;5095419;28;20043;-73
2022/02/18 09:12:24;;;;;;;2.28;0.93;;;8.70;89.90;;;;;;5094675;28;20143;-73
2022/02/18 09:14:50;;;;;;;2.75;1.02;;;8.70;89.80;;;;;;5094650;28;20040;-73
2022/02/18 09:17:17;;;;;;;3.67;1.10;;;8.90;90.00;;;;;;5112588;28;20047;-74
2022/02/18 09:19:43;;;;;;;3.28;1.00;;;8.90;89.90;;;;;;5112682;28;20130;-73
2022/02/18 09:22:09;;;;;;;2.80;1.00;;;9.00;89.90;;;;;;5112614;28;20126;-73
2022/02/18 09:24:35;;;;;;;3.63;1.10;;;9.10;89.90;;;;;;5112821;28;20031;-73
2022/02/18 09:27:01;;;;;;;2.20;1.00;;;9.20;89.90;;;;;;5112936;28;20032;-73
2022/02/18 09:29:27;;;;;;;3.10;1.02;;;9.20;89.90;;;;;;5113006;28;20071;-73
2022/02/18 09:31:54;;;;;;;2.47;1.08;;;9.30;89.80;;;;;;5094708;28;20044;-73
2022/02/18 09:34:22;;;;;;;3.38;1.30;;;9.40;90.20;;;;;;5113477;28;20134;-73
2022/02/18 09:36:48;;;;;;;3.47;1.25;;;9.50;89.80;;;;;;5095275;28;20047;-73
2022/02/18 09:39:14;;;;;;;3.35;1.00;;;9.60;89.90;;;;;;5112652;28;20173;-73
2022/02/18 09:41:41;;;;;;;2.05;1.05;;;9.60;89.80;;;;;;5112383;28;20069;-73
2022/02/18 09:44:09;;;;;;;2.50;0.95;;;9.60;89.80;;;;;;5112833;28;20108;-73
2022/02/18 09:46:38;;;;;;;1.35;0.82;;;9.70;89.80;;;;;;5077506;28;20461;-73
2022/02/18 09:49:04;;;;;;;3.63;1.05;;;9.70;89.80;;;;;;5112821;28;20043;-73
2022/02/18 09:51:30;;;;;;;3.67;0.90;;;9.80;89.90;;;;;;5112487;28;20089;-73
2022/02/18 09:53:58;;;;;;;1.00;0.90;;;9.80;90.00;;;;;;5112555;28;20067;-73
2022/02/18 09:56:24;;;;;;;4.35;1.02;;;9.80;90.00;;;;;;5094002;28;20050;-73
2022/02/18 09:58:52;;;;;;;1.58;0.90;;;9.80;90.00;;;;;;5115420;28;20043;-73
2022/02/18 10:01:18;;;;;;;1.45;0.80;;;9.90;90.00;;;;;;5097205;28;20492;-73
2022/02/18 10:03:44;;;;;;;1.33;0.88;;;9.90;90.00;;;;;;5097224;28;20039;-73
2022/02/18 10:06:10;;;;;;;0.90;0.73;;;10.00;90.10;;;;;;5115700;28;20040;-73
2022/02/18 10:08:47;;;;;;;1.58;1.00;;;10.00;90.10;;;;;;5115921;28;20042;-73
2022/02/18 10:11:13;;;;;;;1.77;0.90;;;10.10;90.20;;;;;;5115563;28;20096;-73
2022/02/18 10:13:41;;;;;;;0.90;0.73;;;10.20;90.20;;;;;;5095229;28;20048;-73
2022/02/18 10:16:21;;;;;;;1.85;0.90;;;10.20;90.20;;;;;;5115308;28;20047;-73
2022/02/18 10:18:59;;;;;;;1.30;0.70;;;10.20;90.10;;;;;;5117965;28;20485;-73
2022/02/18 10:21:27;;;;;;;2.08;0.63;;;10.30;90.20;;;;;;5098361;28;20039;-73
2022/02/18 10:24:08;;;;;;;0.82;0.60;;;10.30;90.20;;;;;;5115302;28;20481;-73
2022/02/18 10:26:38;;;;;;;1.45;0.70;;;10.40;90.20;;;;;;5080838;28;20046;-72
2022/02/18 10:29:04;;;;;;;1.40;0.95;;;10.40;90.20;;;;;;5115179;28;20051;-72
2022/02/18 10:31:30;;;;;;;0.82;0.63;;;10.50;90.20;;;;;;5115239;28;20043;-72
2022/02/18 10:34:01;;;;;;;1.35;0.90;;;10.60;90.20;;;;;;5115008;28;20044;-72
2022/02/18 10:36:40;;;;;;;1.05;0.77;;;10.60;90.20;;;;;;5094928;28;20481;-72
2022/02/18 10:39:23;;;;;;;1.38;0.77;;;10.70;90.20;;;;;;5114968;28;20036;-73
2022/02/18 14:36:29;;;;;;;7.68;1.73;;;10.20;87.10;;;;;;5094104;28;20042;-73
2022/02/18 14:38:55;;;;;;;6.72;1.95;;;10.30;86.00;;;;;;5093317;28;20382;-73
2022/02/18 14:41:21;;;;;;;6.78;1.77;;;10.40;85.40;;;;;;5094963;28;20107;-72
2022/02/18 14:43:51;;;;;;;9.13;2.00;;;10.40;84.80;;;;;;5091570;28;20427;-74
2022/02/18 14:46:17;;;;;;;8.70;2.17;;;10.50;84.30;;;;;;5093890;28;20048;-73
2022/02/18 14:48:44;;;;;;;6.40;1.85;;;10.40;84.00;;;;;;5095050;28;20040;-73
2022/02/18 14:51:11;;;;;;;7.75;1.77;;;10.40;83.60;;;;;;5091636;28;20070;-73
2022/02/18 14:53:46;;;;;;;8.65;1.83;;;10.40;83.20;;;;;;5094646;28;20043;-73
2022/02/18 14:56:12;;;;;;;6.68;1.80;;;10.40;82.60;;;;;;5074499;28;20143;-72
2022/02/18 14:58:38;;;;;;;7.50;1.85;;;10.50;82.60;;;;;;5093314;28;20501;-73
2022/02/18 15:01:03;;;;;;;9.98;2.00;;;10.50;81.80;;;;;;5091965;28;20076;-73
2022/02/18 15:03:29;;;;;;;9.57;2.53;;;10.50;81.30;;;;;;5094277;28;20036;-73
2022/02/18 15:05:54;;;;;;;7.70;1.98;;;10.50;81.20;;;;;;5076329;28;20042;-72
2022/02/18 15:08:20;;;;;;;8.40;2.20;;;10.50;80.70;;;;;;5093088;28;20894;-72
2022/02/18 15:10:46;;;;;;;10.82;2.58;;;10.50;80.10;;;;;;5091143;28;20040;-72
2022/02/18 15:13:13;;;;;;;12.30;2.28;;;10.60;79.30;;;;;;5094455;28;20067;-72
2022/02/18 15:15:40;;;;;;;4.82;1.73;;;10.60;78.70;;;;;;5092766;28;20046;-72
2022/02/18 15:18:05;;;;;;;6.68;1.85;;;10.60;78.40;;;;;;5074059;28;20040;-72
2022/02/18 15:20:31;;;;;;;8.52;2.08;;;10.70;78.10;;;;;;5059492;28;20102;-72
2022/02/18 15:22:58;;;;;;;10.85;2.40;;;10.80;77.40;;;;;;5092769;28;20040;-73
2022/02/18 15:25:23;;;;;;;10.75;2.50;;;10.80;76.50;;;;;;5075895;28;20109;-72
2022/02/18 15:27:49;;;;;;;11.60;2.55;;;10.80;73.70;;;;;;5093909;28;20040;-73
2022/02/18 15:35:36;;;;;;;10.90;2.88;;;11.00;71.20;;;;;;5093755;28;20044;-74
2022/02/18 15:38:02;;;;;;;10.27;2.30;;;11.10;70.20;;;;;;5075999;28;20047;-73
2022/02/18 15:43:10;;;;;;;11.30;2.80;;;10.90;69.90;;;;;;5082607;28;20118;-72
2022/02/18 15:45:35;;;;;;;10.60;2.80;;;11.00;69.10;;;;;;5095749;28;20036;-72
2022/02/18 15:48:01;;;;;;;14.82;2.80;;;10.90;69.10;;;;;;5096611;28;20043;-74
2022/02/18 15:50:27;;;;;;;13.50;2.83;;;10.90;67.60;;;;;;5114002;28;20130;-74
2022/02/18 15:52:52;;;;;;;11.43;3.00;;;10.80;67.20;;;;;;5062581;28;20048;-74
2022/02/18 15:55:22;;;;;;;12.32;2.88;;;10.90;67.20;;;;;;5096006;28;20035;-74
2022/02/18 15:57:47;;;;;;;11.82;2.80;;;10.90;66.70;;;;;;5079500;28;20412;-75
2022/02/18 16:00:13;;;;;;;9.85;2.58;;;10.80;66.80;;;;;;5080440;28;20067;-73
2022/02/18 16:02:42;;;;;;;10.10;2.70;;;10.80;67.10;;;;;;5095948;28;20044;-74
2022/02/18 16:05:10;;;;;;;11.00;2.80;;;10.70;66.90;;;;;;5096195;28;20036;-73
2022/02/18 16:07:36;;;;;;;12.00;3.03;;;10.70;66.30;;;;;;5098728;28;20040;-74
2022/02/18 16:10:05;;;;;;;11.15;3.15;;;10.60;66.50;;;;;;5096375;28;20473;-73
2022/02/18 16:12:32;;;;;;;13.52;2.90;;;10.60;66.90;;;;;;5079516;28;20130;-73
2022/02/18 16:14:58;;;;;;;12.18;2.88;;;10.60;66.40;;;;;;5096210;28;20047;-74
2022/02/18 16:17:23;;;;;;;11.07;2.97;;;10.50;66.40;;;;;;5113879;28;20036;-74
2022/02/18 16:19:49;;;;;;;9.32;3.30;;;10.50;66.80;;;;;;5078480;28;20044;-74
2022/02/18 16:22:15;;;;;;;11.05;3.05;;;10.30;67.20;;;;;;5078406;28;20035;-74
2022/02/18 16:24:40;;;;;;;17.98;3.28;;;10.20;67.80;;;;;;5095726;28;20047;-74
2022/02/18 16:27:09;;;;;;;15.73;4.00;;;10.20;68.10;;;;;;5095305;28;20039;-74
2022/02/18 16:29:36;;;;;;;13.75;3.33;;;9.90;68.40;;;;;;5079344;28;20044;-74
2022/02/18 16:32:02;;;;;;;15.80;3.40;;;9.40;70.40;;;;;;5078234;28;20405;-74
2022/02/18 16:34:27;;;;;;;11.93;2.95;;;9.50;70.80;;;;;;5113785;28;20032;-74
2022/02/18 16:36:53;;;;;;;12.23;3.17;;;9.60;70.60;;;;;;5095359;28;20048;-74
2022/02/18 16:39:19;;;;;;;14.50;3.08;;;9.60;70.70;;;;;;5078190;28;20047;-74
2022/02/18 16:41:46;;;;;;;13.68;3.10;;;9.50;70.30;;;;;;5094882;28;20047;-74
2022/02/18 16:44:12;;;;;;;10.38;3.08;;;9.50;69.80;;;;;;5078052;28;20039;-74
2022/02/18 16:46:38;;;;;;;14.98;2.50;;;9.60;69.20;;;;;;5078120;28;20062;-74
2022/02/18 16:49:05;;;;;;;15.48;3.55;;;9.60;68.50;;;;;;5078012;28;20092;-74
2022/02/18 16:51:34;;;;;;;12.65;2.63;;;9.50;68.50;;;;;;5113472;28;20051;-74